createdAt,value
2019-03-13T00:00:39.094Z,1.02
2019-03-13T00:03:09.446Z,1.02
2019-03-13T00:05:40.256Z,0.93
2019-03-13T00:08:10.628Z,0.97
2019-03-13T00:10:41.511Z,0.93
2019-03-13T00:13:11.989Z,0.90
2019-03-13T00:15:42.321Z,0.92
2019-03-13T00:18:13.043Z,0.88
2019-03-13T00:20:43.665Z,0.80
2019-03-13T00:23:14.001Z,0.79
2019-03-13T00:25:45.343Z,0.91
2019-03-13T00:28:15.732Z,0.74
2019-03-13T00:30:46.422Z,0.81
2019-03-13T00:33:16.942Z,0.71
2019-03-13T00:35:47.716Z,0.48
2019-03-13T00:38:18.026Z,0.36
2019-03-13T00:40:48.711Z,0.55
2019-03-13T00:43:19.005Z,0.86
2019-03-13T00:45:49.530Z,0.93
2019-03-13T00:48:20.286Z,0.87
2019-03-13T00:50:51.611Z,0.76
2019-03-13T00:53:22.099Z,0.72
2019-03-13T00:55:53.032Z,0.66
2019-03-13T00:58:25.375Z,0.65
2019-03-13T01:01:17.433Z,0.66
2019-03-13T01:03:56.657Z,0.65
2019-03-13T01:06:33.829Z,0.63
2019-03-13T01:09:05.767Z,0.60
2019-03-13T01:11:36.793Z,0.54
2019-03-13T01:14:07.365Z,0.51
2019-03-13T01:16:39.212Z,0.45
2019-03-13T01:19:09.512Z,0.49
2019-03-13T01:21:40.236Z,0.54
2019-03-13T01:24:11.061Z,0.51
2019-03-13T01:26:41.399Z,0.46
2019-03-13T01:29:11.692Z,0.49
2019-03-13T01:32:00.543Z,0.46
2019-03-13T01:34:37.616Z,0.48
2019-03-13T01:37:07.939Z,0.51
2019-03-13T01:39:38.721Z,0.45
2019-03-13T01:42:09.338Z,0.51
2019-03-13T01:44:40.894Z,0.32
2019-03-13T01:47:11.273Z,0.37
2019-03-13T01:49:41.567Z,0.40
2019-03-13T01:52:12.423Z,0.24
2019-03-13T01:54:43.122Z,0.32
2019-03-13T01:57:13.607Z,0.43
2019-03-13T01:59:44.181Z,0.47
2019-03-13T02:02:14.957Z,0.38
2019-03-13T02:04:46.312Z,0.32
2019-03-13T02:07:17.093Z,0.34
2019-03-13T02:09:47.891Z,0.23
2019-03-13T02:12:18.317Z,0.27
2019-03-13T02:14:48.800Z,0.24
2019-03-13T02:17:19.342Z,0.16
2019-03-13T02:19:50.036Z,0.15
2019-03-13T02:22:20.919Z,0.24
2019-03-13T02:24:54.029Z,0.24
2019-03-13T02:27:23.490Z,0.21
2019-03-13T02:29:53.885Z,0.22
2019-03-13T02:32:24.230Z,0.24
2019-03-13T02:34:54.676Z,0.28
2019-03-13T02:37:25.238Z,0.30
2019-03-13T02:39:55.632Z,0.34
2019-03-13T02:42:26.267Z,0.31
2019-03-13T02:44:57.023Z,0.52
2019-03-13T02:47:27.341Z,0.53
2019-03-13T02:49:57.750Z,0.56
2019-03-13T02:52:28.524Z,0.58
2019-03-13T02:54:59.151Z,0.56
2019-03-13T02:57:29.579Z,0.58
2019-03-13T03:00:00.518Z,0.57
2019-03-13T03:02:50.439Z,0.63
2019-03-13T03:05:20.730Z,0.67
2019-03-13T03:07:51.636Z,0.59
2019-03-13T03:10:22.428Z,0.52
2019-03-13T03:12:52.760Z,0.53
2019-03-13T03:15:23.329Z,0.74
2019-03-13T03:17:54.104Z,0.75
2019-03-13T03:20:24.406Z,0.87
2019-03-13T03:22:55.002Z,0.89
2019-03-13T03:25:25.297Z,0.94
2019-03-13T03:27:55.756Z,0.97
2019-03-13T03:30:26.270Z,0.98
2019-03-13T03:32:56.668Z,1.06
2019-03-13T03:35:27.277Z,1.24
2019-03-13T03:37:58.250Z,1.22
2019-03-13T03:40:28.574Z,1.40
2019-03-13T03:42:58.922Z,1.43
2019-03-13T03:45:29.443Z,1.37
2019-03-13T03:47:59.824Z,1.43
2019-03-13T03:50:30.083Z,1.65
2019-03-13T03:53:00.731Z,1.58
2019-03-13T03:55:31.092Z,1.63
2019-03-13T03:58:01.627Z,1.63
2019-03-13T04:00:32.875Z,1.68
2019-03-13T04:03:03.516Z,1.71
2019-03-13T04:05:34.190Z,1.66
2019-03-13T04:08:04.868Z,1.71
2019-03-13T04:10:35.160Z,1.66
2019-03-13T04:13:05.890Z,1.59
2019-03-13T04:15:36.360Z,1.61
2019-03-13T04:18:06.683Z,1.61
2019-03-13T04:20:37.501Z,1.65
2019-03-13T04:23:08.034Z,1.81
2019-03-13T04:25:39.807Z,1.81
2019-03-13T04:28:10.410Z,1.87
2019-03-13T04:30:40.710Z,1.78
2019-03-13T04:33:11.428Z,1.81
2019-03-13T04:35:41.911Z,1.81
2019-03-13T04:38:12.465Z,1.81
2019-03-13T04:40:43.153Z,1.93
2019-03-13T04:43:13.969Z,1.95
2019-03-13T04:45:44.260Z,1.96
2019-03-13T04:48:16.043Z,2.02
2019-03-13T04:50:46.420Z,2.07
2019-03-13T04:53:16.801Z,2.05
2019-03-13T04:55:47.294Z,2.03
2019-03-13T04:58:17.735Z,2.19
2019-03-13T05:00:48.403Z,2.09
2019-03-13T05:03:18.916Z,2.17
2019-03-13T05:05:51.573Z,2.18
2019-03-13T05:08:28.955Z,2.27
2019-03-13T05:11:00.985Z,2.23
2019-03-13T05:13:31.313Z,2.27
2019-03-13T05:16:01.933Z,2.18
2019-03-13T05:18:32.383Z,2.24
2019-03-13T05:21:02.749Z,2.45
2019-03-13T05:23:33.290Z,2.32
2019-03-13T05:26:04.042Z,2.29
2019-03-13T05:28:34.433Z,2.39
2019-03-13T05:31:05.222Z,2.36
2019-03-13T05:33:35.523Z,2.44
2019-03-13T05:36:06.558Z,2.53
2019-03-13T05:38:37.140Z,2.62
2019-03-13T05:41:07.682Z,2.73
2019-03-13T05:43:38.249Z,2.79
2019-03-13T05:46:08.945Z,2.81
2019-03-13T05:48:39.424Z,2.89
2019-03-13T05:51:09.781Z,3.05
2019-03-13T05:53:40.226Z,3.03
2019-03-13T05:56:10.540Z,3.04
2019-03-13T05:58:41.008Z,3.01
2019-03-13T06:01:11.896Z,3.13
2019-03-13T06:03:42.335Z,3.12
2019-03-13T06:06:13.089Z,3.15
2019-03-13T06:08:43.538Z,3.33
2019-03-13T06:11:13.990Z,3.21
2019-03-13T06:13:47.121Z,3.36
2019-03-13T06:16:16.676Z,3.35
2019-03-13T06:18:46.985Z,3.32
2019-03-13T06:21:17.843Z,3.48
2019-03-13T06:23:48.424Z,3.40
2019-03-13T06:26:18.792Z,3.39
2019-03-13T06:28:50.224Z,3.27
2019-03-13T06:31:20.781Z,3.38
2019-03-13T06:33:51.271Z,3.50
2019-03-13T06:36:21.812Z,3.51
2019-03-13T06:38:52.132Z,3.71
2019-03-13T06:41:22.753Z,3.99
2019-03-13T06:43:53.315Z,3.82
2019-03-13T06:46:23.583Z,3.81
2019-03-13T06:48:54.129Z,3.88
2019-03-13T06:51:24.853Z,4.00
2019-03-13T06:53:55.142Z,3.96
2019-03-13T06:56:25.515Z,4.02
2019-03-13T06:59:01.342Z,4.14
2019-03-13T07:01:47.214Z,4.37
2019-03-13T07:04:27.156Z,4.38
2019-03-13T07:07:16.625Z,4.47
2019-03-13T07:10:01.739Z,4.75
2019-03-13T07:12:43.764Z,4.76
2019-03-13T07:15:38.576Z,4.87
2019-03-13T07:18:17.367Z,5.09
2019-03-13T07:21:09.437Z,5.20
2019-03-13T07:24:07.867Z,4.92
2019-03-13T07:26:46.250Z,5.23
2019-03-13T07:29:25.979Z,5.31
2019-03-13T07:32:13.947Z,5.51
2019-03-13T07:34:59.715Z,5.32
2019-03-13T07:37:52.013Z,5.56
2019-03-13T07:40:34.033Z,5.62
2019-03-13T07:43:22.997Z,5.68
2019-03-13T07:46:15.678Z,5.87
2019-03-13T07:49:14.545Z,6.00
2019-03-13T07:52:09.385Z,5.97
2019-03-13T07:54:57.602Z,6.17
2019-03-13T07:57:43.561Z,6.15
2019-03-13T08:00:26.091Z,5.91
2019-03-13T08:03:13.415Z,5.91
2019-03-13T08:06:05.476Z,6.21
2019-03-13T08:08:53.376Z,6.03
2019-03-13T08:11:54.683Z,6.28
2019-03-13T08:14:42.746Z,6.19
2019-03-13T08:17:21.022Z,6.34
2019-03-13T08:20:09.308Z,6.31
2019-03-13T08:22:58.160Z,6.51
2019-03-13T08:25:46.640Z,6.35
2019-03-13T08:28:33.595Z,6.39
2019-03-13T08:31:21.733Z,6.48
2019-03-13T08:34:14.356Z,6.64
2019-03-13T08:37:12.649Z,6.73
2019-03-13T08:40:00.499Z,6.82
2019-03-13T08:42:51.193Z,6.69
2019-03-13T08:45:55.789Z,6.81
2019-03-13T08:48:36.761Z,6.85
2019-03-13T08:51:31.775Z,6.93
2019-03-13T08:54:26.979Z,7.05
2019-03-13T08:57:03.667Z,6.77
2019-03-13T08:59:57.844Z,6.72
2019-03-13T09:02:45.440Z,6.91
2019-03-13T09:05:26.445Z,6.85
2019-03-13T09:08:14.207Z,7.05
2019-03-13T09:11:03.482Z,7.10
2019-03-13T09:13:41.781Z,7.30
2019-03-13T09:16:31.360Z,7.44
2019-03-13T09:19:20.018Z,7.71
2019-03-13T09:22:15.353Z,7.97
2019-03-13T09:24:52.938Z,8.30
2019-03-13T09:27:51.673Z,8.34
2019-03-13T09:30:39.633Z,8.09
2019-03-13T09:33:39.540Z,8.41
2019-03-13T09:36:25.144Z,8.56
2019-03-13T09:39:06.238Z,8.49
2019-03-13T09:41:46.291Z,8.80
2019-03-13T09:44:44.576Z,9.01
2019-03-13T09:47:23.722Z,9.29
2019-03-13T09:50:13.270Z,9.32
2019-03-13T09:53:01.405Z,9.93
2019-03-13T09:56:06.374Z,9.77
2019-03-13T09:58:59.365Z,9.89
2019-03-13T10:02:06.777Z,10.76
2019-03-13T10:05:02.612Z,10.13
2019-03-13T10:07:51.916Z,10.45
2019-03-13T10:10:37.559Z,10.62
2019-03-13T10:13:41.939Z,11.05
2019-03-13T10:16:31.257Z,11.05
2019-03-13T10:19:20.567Z,11.38
2019-03-13T10:22:03.494Z,11.29
2019-03-13T10:24:52.712Z,11.38
2019-03-13T10:27:44.697Z,10.83
2019-03-13T10:30:34.801Z,11.14
2019-03-13T10:33:22.717Z,10.43
2019-03-13T10:36:12.270Z,10.52
2019-03-13T10:39:10.722Z,9.91
2019-03-13T10:42:04.578Z,10.64
2019-03-13T10:44:56.006Z,10.75
2019-03-13T10:47:53.773Z,10.05
2019-03-13T10:50:48.906Z,11.28
2019-03-13T10:53:32.794Z,11.74
2019-03-13T10:56:22.046Z,11.68
2019-03-13T10:59:00.659Z,12.11
2019-03-13T11:01:51.595Z,12.69
2019-03-13T11:04:34.045Z,13.18
2019-03-13T11:07:18.089Z,13.04
2019-03-13T11:10:05.790Z,13.14
2019-03-13T11:12:58.125Z,13.17
2019-03-13T11:15:50.762Z,13.12
2019-03-13T11:18:27.677Z,13.44
2019-03-13T11:21:25.811Z,13.55
2019-03-13T11:24:15.107Z,13.88
2019-03-13T11:27:03.216Z,13.89
2019-03-13T11:29:49.943Z,13.08
2019-03-13T11:32:48.459Z,13.23
2019-03-13T11:35:38.262Z,13.70
2019-03-13T11:38:26.206Z,13.99
2019-03-13T11:41:18.767Z,14.53
2019-03-13T11:44:07.101Z,14.46
2019-03-13T11:47:03.971Z,13.55
2019-03-13T11:49:52.210Z,12.77
2019-03-13T11:52:45.422Z,13.12
2019-03-13T11:55:23.792Z,13.61
2019-03-13T11:58:13.463Z,14.07
2019-03-13T12:00:52.591Z,13.96
2019-03-13T12:03:54.200Z,14.02
2019-03-13T12:06:44.029Z,14.13
2019-03-13T12:09:24.207Z,14.61
2019-03-13T12:12:25.425Z,14.26
2019-03-13T12:15:17.628Z,14.46
2019-03-13T12:18:09.992Z,14.47
2019-03-13T12:20:59.779Z,13.41
2019-03-13T12:24:01.097Z,14.10
2019-03-13T12:26:43.987Z,14.11
2019-03-13T12:29:36.331Z,13.95
2019-03-13T12:32:19.670Z,13.48
2019-03-13T12:35:07.265Z,13.50
2019-03-13T12:38:11.363Z,12.91
2019-03-13T12:41:19.144Z,13.20
2019-03-13T12:44:08.772Z,13.76
2019-03-13T12:46:50.955Z,13.47
2019-03-13T12:49:52.742Z,14.37
2019-03-13T12:52:40.792Z,13.49
2019-03-13T12:55:30.086Z,13.65
2019-03-13T12:58:20.053Z,13.87
2019-03-13T13:01:11.954Z,13.63
2019-03-13T13:03:56.004Z,12.64
2019-03-13T13:06:51.065Z,12.80
2019-03-13T13:09:39.235Z,13.00
2019-03-13T13:12:34.551Z,13.04
2019-03-13T13:15:30.341Z,13.16
2019-03-13T13:18:31.939Z,13.27
2019-03-13T13:21:02.740Z,12.96
2019-03-13T13:23:33.872Z,11.91
2019-03-13T13:26:04.514Z,12.17
2019-03-13T13:28:35.274Z,12.04
2019-03-13T13:31:05.888Z,12.17
2019-03-13T13:33:36.274Z,12.18
2019-03-13T13:36:07.350Z,12.02
2019-03-13T13:38:38.121Z,12.23
2019-03-13T13:41:08.711Z,11.79
2019-03-13T13:43:39.503Z,11.75
2019-03-13T13:46:30.468Z,11.80
2019-03-13T13:49:00.981Z,12.03
2019-03-13T13:51:32.845Z,12.24
2019-03-13T13:54:03.555Z,12.77
2019-03-13T13:56:33.990Z,13.27
2019-03-13T13:59:04.788Z,13.05
2019-03-13T14:01:35.066Z,13.30
2019-03-13T14:04:05.586Z,13.36
2019-03-13T14:06:35.975Z,13.12
2019-03-13T14:09:07.554Z,13.11
2019-03-13T14:11:39.505Z,13.04
2019-03-13T14:14:10.385Z,12.49
2019-03-13T14:16:40.767Z,12.40
2019-03-13T14:19:11.510Z,12.40
2019-03-13T14:21:42.026Z,12.41
2019-03-13T14:24:12.360Z,12.17
2019-03-13T14:26:43.391Z,12.07
2019-03-13T14:29:14.019Z,11.99
2019-03-13T14:31:45.462Z,11.92
2019-03-13T14:34:15.904Z,11.86
2019-03-13T14:36:46.602Z,11.54
2019-03-13T14:39:17.093Z,11.42
2019-03-13T14:41:47.757Z,11.56
2019-03-13T14:44:18.439Z,11.64
2019-03-13T14:46:48.887Z,11.59
2019-03-13T14:49:19.721Z,11.92
2019-03-13T14:51:50.006Z,11.77
2019-03-13T14:54:20.910Z,12.44
2019-03-13T14:56:51.737Z,12.74
2019-03-13T14:59:22.077Z,12.85
2019-03-13T15:01:53.430Z,12.43
2019-03-13T15:04:23.848Z,12.56
2019-03-13T15:06:54.125Z,12.05
2019-03-13T15:09:24.767Z,11.75
2019-03-13T15:11:55.797Z,11.48
2019-03-13T15:14:26.138Z,11.42
2019-03-13T15:16:56.560Z,11.10
2019-03-13T15:19:27.183Z,10.99
2019-03-13T15:21:57.919Z,10.68
2019-03-13T15:24:28.804Z,10.62
2019-03-13T15:27:00.175Z,10.79
2019-03-13T15:29:30.778Z,10.78
2019-03-13T15:32:01.583Z,11.14
2019-03-13T15:34:32.146Z,11.28
2019-03-13T15:37:02.535Z,11.16
2019-03-13T15:39:33.308Z,11.18
2019-03-13T15:42:03.604Z,11.49
2019-03-13T15:44:34.235Z,11.49
2019-03-13T15:47:04.967Z,12.02
2019-03-13T15:49:35.547Z,11.79
2019-03-13T15:52:06.124Z,11.96
2019-03-13T15:54:36.462Z,12.04
2019-03-13T15:57:06.890Z,12.30
2019-03-13T15:59:37.426Z,12.35
2019-03-13T16:02:07.825Z,12.36
2019-03-13T16:04:38.151Z,12.03
2019-03-13T16:07:08.843Z,12.01
2019-03-13T16:09:39.358Z,11.43
2019-03-13T16:12:09.751Z,11.51
2019-03-13T16:14:40.631Z,10.47
2019-03-13T16:17:11.267Z,10.14
2019-03-13T16:19:42.668Z,10.39
2019-03-13T16:22:14.790Z,9.81
2019-03-13T16:24:45.660Z,9.44
2019-03-13T16:27:17.586Z,9.26
2019-03-13T16:29:47.984Z,9.04
2019-03-13T16:32:20.062Z,8.73
2019-03-13T16:34:50.479Z,8.41
2019-03-13T16:37:20.901Z,8.42
2019-03-13T16:39:51.453Z,8.00
2019-03-13T16:42:22.755Z,8.03
2019-03-13T16:44:53.133Z,7.64
2019-03-13T16:47:23.778Z,7.43
2019-03-13T16:49:54.309Z,7.37
2019-03-13T16:52:25.697Z,7.32
2019-03-13T16:54:58.480Z,7.29
2019-03-13T16:57:28.556Z,7.15
2019-03-13T17:00:00.779Z,7.06
2019-03-13T17:02:31.920Z,6.85
2019-03-13T17:05:02.573Z,6.67
2019-03-13T17:07:34.367Z,6.62
2019-03-13T17:10:05.611Z,6.55
2019-03-13T17:12:35.971Z,6.53
2019-03-13T17:15:08.210Z,6.54
2019-03-13T17:17:39.041Z,6.43
2019-03-13T17:20:12.766Z,6.34
2019-03-13T17:22:43.611Z,6.33
2019-03-13T17:25:15.779Z,6.14
2019-03-13T17:27:46.651Z,6.20
2019-03-13T17:30:19.842Z,6.07
2019-03-13T17:32:50.269Z,6.08
2019-03-13T17:35:21.245Z,6.08
2019-03-13T17:37:51.775Z,5.96
2019-03-13T17:40:23.670Z,5.98
2019-03-13T17:42:55.480Z,5.97
2019-03-13T17:45:27.131Z,5.96
2019-03-13T17:47:57.965Z,5.91
2019-03-13T17:50:30.757Z,5.91
2019-03-13T17:53:02.091Z,5.88
2019-03-13T17:55:32.789Z,5.83
2019-03-13T17:58:03.498Z,5.92
2019-03-13T18:00:39.982Z,5.91
2019-03-13T18:03:10.893Z,5.73
2019-03-13T18:05:41.793Z,5.75
2019-03-13T18:08:12.220Z,5.82
2019-03-13T18:10:42.989Z,5.78
2019-03-13T18:13:13.689Z,5.75
2019-03-13T18:15:44.182Z,5.67
2019-03-13T18:18:14.486Z,5.67
2019-03-13T18:20:45.128Z,5.77
2019-03-13T18:23:15.407Z,5.75
2019-03-13T18:25:45.890Z,5.79
2019-03-13T18:28:16.288Z,5.86
2019-03-13T18:30:46.641Z,5.86
2019-03-13T18:33:16.933Z,5.59
2019-03-13T18:35:47.778Z,5.63
2019-03-13T18:38:18.559Z,5.76
2019-03-13T18:40:48.885Z,5.72
2019-03-13T18:43:19.580Z,5.67
2019-03-13T18:45:50.408Z,5.73
2019-03-13T18:48:20.823Z,5.68
2019-03-13T18:50:51.487Z,5.70
2019-03-13T18:53:22.172Z,5.68
2019-03-13T18:55:52.662Z,5.71
2019-03-13T18:58:23.070Z,5.70
2019-03-13T19:00:54.100Z,5.81
2019-03-13T19:03:24.382Z,5.77
2019-03-13T19:05:55.425Z,5.93
2019-03-13T19:08:27.025Z,5.68
2019-03-13T19:10:57.914Z,5.73
2019-03-13T19:13:28.874Z,5.95
2019-03-13T19:15:59.371Z,5.89
2019-03-13T19:18:29.765Z,5.57
2019-03-13T19:21:00.670Z,5.32
2019-03-13T19:23:31.922Z,5.43
2019-03-13T19:26:02.364Z,5.55
2019-03-13T19:28:33.078Z,5.63
2019-03-13T19:31:03.620Z,5.17
2019-03-13T19:33:33.907Z,5.48
2019-03-13T19:36:04.699Z,5.50
2019-03-13T19:38:35.031Z,5.56
2019-03-13T19:41:08.470Z,5.60
2019-03-13T19:43:37.911Z,5.45
2019-03-13T19:46:08.582Z,5.52
2019-03-13T19:48:39.263Z,5.54
2019-03-13T19:51:10.026Z,5.32
2019-03-13T19:53:41.916Z,5.47
2019-03-13T19:56:12.654Z,5.14
2019-03-13T19:58:43.102Z,4.95
2019-03-13T20:01:13.409Z,4.81
2019-03-13T20:03:54.581Z,4.83
2019-03-13T20:06:16.600Z,5.02
2019-03-13T20:08:47.026Z,4.92
2019-03-13T20:11:17.628Z,5.21
2019-03-13T20:13:47.925Z,4.96
2019-03-13T20:16:18.714Z,4.87
2019-03-13T20:18:49.941Z,4.92
2019-03-13T20:21:21.534Z,4.84
2019-03-13T20:23:52.250Z,4.84
2019-03-13T20:26:23.181Z,4.76
2019-03-13T20:28:53.561Z,4.77
2019-03-13T20:31:23.949Z,4.85
2019-03-13T20:33:54.730Z,4.62
2019-03-13T20:36:25.203Z,4.65
2019-03-13T20:38:55.688Z,4.49
2019-03-13T20:41:26.258Z,4.66
2019-03-13T20:43:56.643Z,4.57
2019-03-13T20:46:27.243Z,4.64
2019-03-13T20:48:57.965Z,4.72
2019-03-13T20:51:28.532Z,4.97
2019-03-13T20:53:58.875Z,4.98
2019-03-13T20:56:29.599Z,4.97
2019-03-13T20:59:00.021Z,4.78
2019-03-13T21:01:30.346Z,4.89
2019-03-13T21:04:01.003Z,4.53
2019-03-13T21:06:31.769Z,4.55
2019-03-13T21:09:02.141Z,4.71
2019-03-13T21:11:34.279Z,4.97
2019-03-13T21:14:04.687Z,5.10
2019-03-13T21:16:35.466Z,5.07
2019-03-13T21:19:06.203Z,4.89
2019-03-13T21:21:36.561Z,4.91
2019-03-13T21:24:07.379Z,4.70
2019-03-13T21:26:37.818Z,4.31
2019-03-13T21:29:08.211Z,4.38
2019-03-13T21:31:39.031Z,4.50
2019-03-13T21:34:09.825Z,4.31
2019-03-13T21:36:40.395Z,3.79
2019-03-13T21:39:11.129Z,3.88
2019-03-13T21:41:42.207Z,3.99
2019-03-13T21:44:12.632Z,4.14
2019-03-13T21:46:43.371Z,3.97
2019-03-13T21:49:13.770Z,3.77
2019-03-13T21:51:44.226Z,3.51
2019-03-13T21:54:14.920Z,3.69
2019-03-13T21:56:45.239Z,3.79
2019-03-13T21:59:15.566Z,3.88
2019-03-13T22:01:46.329Z,4.03
2019-03-13T22:04:24.235Z,4.16
2019-03-13T22:06:48.728Z,4.17
2019-03-13T22:09:19.183Z,4.24
2019-03-13T22:11:50.084Z,4.18
2019-03-13T22:14:20.488Z,4.35
2019-03-13T22:16:51.311Z,4.47
2019-03-13T22:19:21.754Z,4.61
2019-03-13T22:21:52.570Z,4.52
2019-03-13T22:24:23.830Z,4.65
2019-03-13T22:26:54.483Z,4.57
2019-03-13T22:29:24.951Z,4.80
2019-03-13T22:31:55.497Z,4.97
2019-03-13T22:34:25.807Z,4.96
2019-03-13T22:36:56.480Z,4.77
2019-03-13T22:39:27.155Z,5.12
2019-03-13T22:41:57.588Z,5.13
2019-03-13T22:44:28.251Z,5.24
2019-03-13T22:46:58.942Z,5.14
2019-03-13T22:49:29.361Z,5.13
2019-03-13T22:52:00.190Z,5.10
2019-03-13T22:54:30.476Z,5.12
2019-03-13T22:57:01.177Z,5.30
2019-03-13T22:59:31.539Z,5.06
2019-03-13T23:02:01.867Z,5.25
2019-03-13T23:04:35.695Z,5.15
2019-03-13T23:07:05.385Z,5.14
2019-03-13T23:09:35.676Z,5.03
2019-03-13T23:12:06.174Z,5.21
2019-03-13T23:14:36.957Z,5.30
2019-03-13T23:17:07.301Z,5.26
2019-03-13T23:19:37.647Z,5.31
2019-03-13T23:22:08.411Z,5.25
2019-03-13T23:24:38.830Z,5.26
2019-03-13T23:27:09.336Z,5.21
2019-03-13T23:29:39.670Z,5.17
2019-03-13T23:32:10.426Z,5.13
2019-03-13T23:34:41.148Z,5.18
2019-03-13T23:37:11.475Z,5.06
2019-03-13T23:39:41.991Z,5.08
2019-03-13T23:42:12.920Z,5.10
2019-03-13T23:44:44.191Z,5.01
2019-03-13T23:47:14.647Z,4.93
2019-03-13T23:49:45.185Z,4.99
2019-03-13T23:52:15.707Z,4.99
2019-03-13T23:54:46.348Z,4.99
2019-03-13T23:57:16.828Z,4.81
2019-03-13T23:59:47.154Z,4.85
